Time;durP1;ratioP1;P1;durP2;ratioP2;P2;SDS_P1;SDS_P2;PMS_P1;PMS_P2;Temp;Humidity;BMP_temperature;BMP_pressure;BME280_temperature;BME280_humidity;BME280_pressure;Samples;Min_cycle;Max_cycle;Signal;HPM_P1;HPM_P2
2023/09/20 00:00:57;;;;;;;7.20;4.60;;;;;;;17.94;80.36;98913.73;232678;214;139720;-57
2023/09/20 00:06:10;;;;;;;7.30;4.50;;;;;;;17.90;80.23;98916.59;232754;214;137313;-57
2023/09/20 00:11:15;;;;;;;8.10;4.60;;;;;;;17.82;80.01;98921.33;232906;215;145419;-58
2023/09/20 00:16:22;;;;;;;8.00;4.40;;;;;;;17.72;80.10;98921.26;232889;214;138790;-59
2023/09/20 00:21:27;;;;;;;9.80;4.60;;;;;;;17.70;80.37;98918.77;232758;214;138784;-58
2023/09/20 00:26:32;;;;;;;;;;;;;;;17.73;80.60;98925.55;232796;215;145899;-59
2023/09/20 00:31:37;;;;;;;7.30;4.40;;;;;;;17.71;80.53;98927.16;232822;215;138675;-59
2023/09/20 00:36:44;;;;;;;7.60;4.40;;;;;;;17.67;80.46;98931.58;232709;214;137183;-56
2023/09/20 00:41:49;;;;;;;11.90;4.50;;;;;;;17.67;80.52;98934.89;232778;215;146572;-58
2023/09/20 00:46:55;;;;;;;6.70;4.80;;;;;;;17.69;80.50;98937.36;232831;214;139000;-57
2023/09/20 00:52:03;;;;;;;;;;;;;;;17.71;80.27;98938.94;233023;215;138088;-58
2023/09/20 00:57:09;;;;;;;6.60;4.80;;;;;;;17.66;80.40;98942.79;232829;214;145545;-58
2023/09/20 01:02:16;;;;;;;5.90;4.70;;;;;;;17.60;80.63;98945.03;232826;215;139346;-57
2023/09/20 01:07:20;;;;;;;6.70;4.90;;;;;;;17.56;80.74;98950.80;232814;215;139798;-58
2023/09/20 01:12:25;;;;;;;7.00;5.20;;;;;;;17.55;80.82;98955.58;232864;214;145634;-57
2023/09/20 01:17:28;;;;;;;6.90;4.70;;;;;;;17.49;80.81;98956.41;232767;215;139777;-58
2023/09/20 01:22:34;;;;;;;11.10;5.00;;;;;;;17.52;80.75;98960.28;232877;215;138707;-57
2023/09/20 01:27:42;;;;;;;4.90;3.90;;;;;;;17.52;80.59;98955.67;232847;215;145917;-57
2023/09/20 01:32:46;;;;;;;8.90;3.80;;;;;;;17.48;80.25;98955.23;232807;215;139319;-58
2023/09/20 01:37:55;;;;;;;9.00;4.60;;;;;;;17.43;80.24;98956.61;232793;215;137514;-57
2023/09/20 01:43:00;;;;;;;9.30;4.20;;;;;;;17.40;80.26;98958.34;232889;215;146527;-58
2023/09/20 01:48:08;;;;;;;5.60;3.80;;;;;;;17.38;80.35;98954.77;232752;215;138792;-57
2023/09/20 01:53:14;;;;;;;7.30;3.70;;;;;;;17.31;80.22;98961.51;232871;215;137289;-58
2023/09/20 01:58:20;;;;;;;7.90;4.10;;;;;;;17.25;80.49;98962.04;232850;214;145586;-58
2023/09/20 02:03:27;;;;;;;7.60;3.60;;;;;;;17.28;80.60;98964.86;232743;214;138883;-57
2023/09/20 02:08:34;;;;;;;5.80;3.40;;;;;;;17.31;80.43;98960.42;232774;214;139224;-58
2023/09/20 02:13:39;;;;;;;6.70;3.40;;;;;;;17.33;80.41;98962.02;232712;214;145688;-58
2023/09/20 02:18:46;;;;;;;5.50;3.10;;;;;;;17.32;80.42;98963.01;232775;215;139275;-58
2023/09/20 02:23:52;;;;;;;3.00;2.60;;;;;;;17.30;80.46;98963.20;232784;214;138556;-58
2023/09/20 02:28:57;;;;;;;6.30;3.10;;;;;;;17.30;80.47;98962.89;232755;215;145946;-57
2023/09/20 02:34:03;;;;;;;8.50;3.20;;;;;;;17.29;80.38;98965.66;232778;214;141103;-59
2023/09/20 02:39:09;;;;;;;5.30;3.50;;;;;;;17.26;80.30;98968.36;232699;214;137614;-58
2023/09/20 02:44:14;;;;;;;8.00;3.40;;;;;;;17.23;80.11;98971.55;232656;214;146105;-57
2023/09/20 05:05:31;;;;;;;7.10;3.50;;;;;;;17.02;79.20;99002.35;231467;224;698450;-60
2023/09/20 05:10:36;;;;;;;137.90;115.50;;;;;;;16.97;79.38;99004.00;233011;215;136961;-59
2023/09/20 05:15:43;;;;;;;10.40;5.40;;;;;;;16.97;79.42;99004.91;232855;216;145782;-55
2023/09/20 05:20:49;;;;;;;6.90;4.20;;;;;;;16.99;79.40;99002.96;232856;215;138790;-58
2023/09/20 05:25:54;;;;;;;7.00;3.80;;;;;;;16.97;79.20;99012.20;232792;215;136628;-59
2023/09/20 05:31:00;;;;;;;11.80;8.30;;;;;;;16.97;79.56;99025.67;232924;215;144025;-59
2023/09/20 05:36:06;;;;;;;5.90;3.60;;;;;;;16.95;79.37;99024.03;232832;215;139106;-55
2023/09/20 05:41:10;;;;;;;9.80;3.50;;;;;;;16.90;79.60;99019.31;232988;215;137018;-58
2023/09/20 05:46:16;;;;;;;;;;;;;;;16.92;79.80;99026.29;232889;215;144584;-59
2023/09/20 05:51:21;;;;;;;6.90;3.70;;;;;;;17.02;80.07;99027.77;232920;215;139358;-59
2023/09/20 05:56:26;;;;;;;6.60;3.50;;;;;;;17.14;79.82;99022.74;232827;215;137327;-59
2023/09/20 06:01:31;;;;;;;6.50;3.20;;;;;;;17.23;79.10;99023.34;232788;215;146141;-62
2023/09/20 06:06:37;;;;;;;12.00;3.60;;;;;;;17.29;78.76;99020.71;232797;215;140407;-60
2023/09/20 06:11:41;;;;;;;4.80;3.20;;;;;;;17.31;78.43;99021.58;232772;215;137969;-60
2023/09/20 06:16:45;;;;;;;13.20;3.30;;;;;;;17.35;78.32;99026.10;233006;216;146207;-60
2023/09/20 06:21:51;;;;;;;63.20;48.80;;;;;;;17.41;78.46;99031.07;232660;214;139538;-59
2023/09/20 06:26:58;;;;;;;9.90;3.90;;;;;;;17.48;78.73;99037.04;232736;214;136833;-59
2023/09/20 06:32:04;;;;;;;9.60;4.20;;;;;;;17.55;78.30;99038.77;232648;214;146524;-58
2023/09/20 06:37:09;;;;;;;9.50;4.20;;;;;;;17.60;78.23;99042.09;232735;214;139077;-61
2023/09/20 06:42:14;;;;;;;12.40;3.40;;;;;;;17.63;78.06;99045.17;232785;214;138135;-60
2023/09/20 06:47:18;;;;;;;10.90;3.00;;;;;;;17.69;77.53;99052.20;232867;214;146512;-60
2023/09/20 06:52:23;;;;;;;6.60;3.20;;;;;;;17.76;77.14;99052.90;232618;214;138595;-58
2023/09/20 06:57:29;;;;;;;7.80;3.00;;;;;;;17.85;76.86;99052.55;232802;215;137811;-60
2023/09/20 07:02:35;;;;;;;;;;;;;;;17.99;76.68;99052.00;232748;214;148185;-58
2023/09/20 07:07:42;;;;;;;8.60;3.40;;;;;;;18.06;76.53;99051.70;232787;214;141317;-57
2023/09/20 07:12:47;;;;;;;8.40;3.30;;;;;;;18.13;76.32;99050.47;232740;215;137127;-60
2023/09/20 07:18:11;;;;;;;7.00;2.90;;;;;;;18.19;75.64;99058.20;232640;214;147017;-61
2023/09/20 07:23:18;;;;;;;4.80;3.10;;;;;;;18.32;75.32;99060.29;232830;215;138697;-59
2023/09/20 07:28:24;;;;;;;6.30;2.80;;;;;;;18.38;74.54;99063.57;232681;214;137187;-59
2023/09/20 07:33:29;;;;;;;4.60;2.80;;;;;;;18.46;73.39;99068.84;232716;214;146409;-60
2023/09/20 07:38:36;;;;;;;5.70;3.00;;;;;;;18.55;72.95;99069.21;232695;214;139023;-60
2023/09/20 07:43:44;;;;;;;24.50;18.60;;;;;;;18.68;72.72;99074.85;232733;214;137119;-60
2023/09/20 07:48:50;;;;;;;7.00;3.30;;;;;;;18.82;72.80;99077.45;232625;214;145816;-60
2023/09/20 07:53:55;;;;;;;5.10;3.00;;;;;;;18.92;72.49;99071.48;232738;214;140262;-59
2023/09/20 07:59:03;;;;;;;5.10;2.80;;;;;;;19.06;72.16;99072.77;234943;214;137837;-56
2023/09/20 08:09:08;;;;;;;5.70;3.40;;;;;;;19.41;70.91;99069.92;231407;225;724259;-60
2023/09/20 08:14:12;;;;;;;5.70;2.40;;;;;;;19.54;69.44;99072.92;232913;216;136546;-56
2023/09/20 08:19:21;;;;;;;5.50;2.50;;;;;;;19.62;67.29;99071.27;232897;216;143868;-62
2023/09/20 09:02:54;;;;;;;3.70;2.10;;;;;;;20.40;61.32;99067.30;232951;216;136713;-59
2023/09/20 09:08:02;;;;;;;4.30;1.70;;;;;;;20.57;61.87;99066.94;232897;216;145914;-57
2023/09/20 09:13:07;;;;;;;4.20;1.80;;;;;;;20.73;60.53;99066.03;232850;216;138744;-59
2023/09/20 09:18:18;;;;;;;2.60;2.10;;;;;;;20.82;59.39;99062.78;232902;216;137491;-62
2023/09/20 09:23:33;;;;;;;3.60;2.00;;;;;;;20.87;59.31;99055.30;233025;216;146482;-61
2023/09/20 09:28:39;;;;;;;21.20;17.00;;;;;;;21.02;59.83;99061.23;232850;216;139402;-61
2023/09/20 09:33:45;;;;;;;5.00;2.50;;;;;;;21.19;59.01;99055.39;232949;216;137616;-58
2023/09/20 09:38:49;;;;;;;3.50;2.10;;;;;;;21.31;57.89;99051.09;232821;216;148500;-59
2023/09/20 09:43:58;;;;;;;4.20;1.90;;;;;;;21.45;57.98;99043.67;232884;216;138700;-57
2023/09/20 09:49:02;;;;;;;6.70;4.20;;;;;;;21.58;56.71;99047.27;234397;215;137146;-62
2023/09/20 09:54:07;;;;;;;10.80;3.30;;;;;;;21.57;55.54;99049.58;234538;216;145789;-60
2023/09/20 09:59:14;;;;;;;6.50;2.70;;;;;;;21.57;55.68;99047.08;234641;215;139678;-61
2023/09/20 10:09:56;;;;;;;5.70;1.90;;;;;;;21.72;55.16;99032.85;231418;223;721876;-59
2023/09/20 10:15:06;;;;;;;4.70;1.40;;;;;;;21.98;54.80;99033.05;234896;214;136560;-60
2023/09/20 10:20:15;;;;;;;45.10;29.70;;;;;;;22.27;54.25;99036.58;234993;213;145688;-62
2023/09/20 10:25:29;;;;;;;6.70;2.40;;;;;;;22.45;51.60;99035.08;234966;213;138227;-64
2023/09/20 10:30:34;;;;;;;2.00;1.10;;;;;;;22.61;50.62;99030.70;235035;213;263424;-66
2023/09/20 10:35:39;;;;;;;4.00;1.50;;;;;;;22.73;50.05;99027.20;235165;213;143705;-66
2023/09/20 10:40:45;;;;;;;3.00;1.10;;;;;;;22.93;50.45;99021.97;235121;213;138849;-63
2023/09/20 10:45:53;;;;;;;3.80;1.40;;;;;;;23.11;49.78;99017.70;235031;214;137698;-63
2023/09/20 10:50:58;;;;;;;3.50;1.30;;;;;;;23.18;49.16;99016.86;234986;213;143592;-63
2023/09/20 10:56:02;;;;;;;;;;;;;;;23.23;49.08;99015.04;235076;213;139215;-64
2023/09/20 11:01:06;;;;;;;3.00;1.40;;;;;;;23.36;49.15;99009.77;235064;213;129364;-63
2023/09/20 11:09:25;;;;;;;2.50;1.30;;;;;;;23.73;48.03;99004.57;231345;224;726757;-63
2023/09/20 11:14:32;;;;;;;1.80;1.10;;;;;;;23.80;47.44;98998.23;232488;218;136243;-62
2023/09/20 11:19:39;;;;;;;2.00;1.10;;;;;;;23.86;46.76;98990.92;232864;216;143833;-61
2023/09/20 11:24:44;;;;;;;2.80;1.50;;;;;;;23.95;46.67;98985.40;232730;214;138941;-61
2023/09/20 11:29:49;;;;;;;3.90;1.30;;;;;;;24.12;46.75;98976.94;232891;214;136338;-61
2023/09/20 11:34:54;;;;;;;2.50;1.30;;;;;;;24.37;46.82;98969.61;232722;214;145806;-62
2023/09/20 11:40:04;;;;;;;2.10;1.30;;;;;;;24.54;46.53;98957.77;232670;214;140940;-63
2023/09/20 11:45:11;;;;;;;1.70;1.00;;;;;;;24.69;45.62;98958.95;232644;214;138708;-63
2023/09/20 11:50:42;;;;;;;1.80;1.10;;;;;;;24.87;45.29;98953.13;232528;214;144730;-62
2023/09/20 11:55:46;;;;;;;4.60;1.50;;;;;;;25.11;44.66;98948.12;232790;214;138874;-61
2023/09/20 12:00:54;;;;;;;;;;;;;;;25.33;43.21;98952.66;232723;213;137123;-61
2023/09/20 12:05:58;;;;;;;2.40;1.20;;;;;;;25.31;42.52;98953.95;232871;213;145848;-62
2023/09/20 12:11:05;;;;;;;2.50;1.10;;;;;;;25.27;42.74;98946.23;232612;214;137901;-61
2023/09/20 12:16:08;;;;;;;2.20;1.20;;;;;;;25.15;43.03;98944.73;232695;214;137856;-62
2023/09/20 12:21:12;;;;;;;2.50;1.30;;;;;;;25.09;43.81;98935.34;232832;215;145994;-62
2023/09/20 12:26:18;;;;;;;1.80;1.20;;;;;;;25.08;43.13;98932.55;232742;215;140241;-62
2023/09/20 12:31:23;;;;;;;3.50;1.20;;;;;;;25.07;43.35;98927.44;232800;215;137816;-60
2023/09/20 12:36:30;;;;;;;2.10;1.10;;;;;;;25.09;43.02;98926.96;232861;214;145399;-60
2023/09/20 12:41:37;;;;;;;1.80;1.20;;;;;;;25.12;43.06;98923.02;232988;215;138663;-60
2023/09/20 12:46:43;;;;;;;73.50;54.50;;;;;;;25.19;43.07;98916.30;232668;214;137035;-59
2023/09/20 12:51:47;;;;;;;5.70;3.20;;;;;;;25.25;43.43;98915.04;232771;214;145796;-62
2023/09/20 12:56:53;;;;;;;2.20;1.50;;;;;;;25.38;43.46;98905.44;232693;214;140550;-62
2023/09/20 13:02:00;;;;;;;2.30;1.50;;;;;;;25.49;43.45;98904.67;232796;215;137564;-59
2023/09/20 13:07:04;;;;;;;2.60;1.40;;;;;;;25.60;42.50;98901.44;232745;214;147732;-60
2023/09/20 13:12:08;;;;;;;3.70;1.10;;;;;;;25.71;42.31;98895.75;232920;215;139332;-62
2023/09/20 13:17:16;;;;;;;3.00;1.30;;;;;;;25.93;41.68;98891.89;232785;215;136510;-63
2023/09/20 13:22:20;;;;;;;2.10;0.90;;;;;;;26.14;40.98;98891.17;232780;214;145543;-63
2023/09/20 13:27:25;;;;;;;2.70;1.40;;;;;;;26.33;40.12;98891.38;232818;215;139796;-64
2023/09/20 13:32:30;;;;;;;2.20;1.10;;;;;;;26.47;40.54;98887.45;232773;215;137088;-62
2023/09/20 13:37:35;;;;;;;2.20;1.00;;;;;;;26.72;40.46;98880.46;232807;214;145570;-64
2023/09/20 13:42:43;;;;;;;2.30;1.20;;;;;;;26.92;39.96;98874.80;232675;214;138050;-57
2023/09/20 13:47:52;;;;;;;2.10;1.30;;;;;;;26.92;39.60;98871.64;232790;214;137352;-60
2023/09/20 13:52:57;;;;;;;2.00;1.30;;;;;;;26.72;39.32;98873.06;232711;214;146457;-59
2023/09/20 13:58:02;;;;;;;2.80;1.30;;;;;;;26.34;39.57;98871.07;232778;215;140056;-57
2023/09/20 14:03:07;;;;;;;1.90;1.30;;;;;;;25.97;40.24;98874.09;232752;215;139288;-60
2023/09/20 14:08:12;;;;;;;4.00;1.10;;;;;;;25.67;40.37;98870.83;232725;214;148990;-59
2023/09/20 14:13:19;;;;;;;2.50;1.10;;;;;;;25.42;41.10;98864.61;232605;214;139449;-60
2023/09/20 14:18:24;;;;;;;2.80;1.20;;;;;;;25.20;41.77;98865.39;232900;214;137771;-60
2023/09/20 14:23:30;;;;;;;;;;;;;;;25.02;42.44;98863.81;232708;215;146073;-62
2023/09/20 14:33:21;;;;;;;3.20;1.30;;;;;;;24.80;43.06;98850.84;231411;224;723435;-60
2023/09/20 14:38:26;;;;;;;2.30;1.10;;;;;;;24.71;43.45;98850.80;232855;216;140011;-60
2023/09/20 14:43:31;;;;;;;19.00;14.70;;;;;;;24.64;43.49;98841.80;232965;216;144522;-59
2023/09/20 14:48:37;;;;;;;4.20;2.40;;;;;;;24.51;43.68;98839.71;233050;215;138958;-60
2023/09/20 14:53:43;;;;;;;5.10;3.30;;;;;;;24.43;43.75;98841.15;232744;214;136878;-58
2023/09/20 14:58:48;;;;;;;3.70;1.50;;;;;;;24.34;44.28;98835.89;232657;214;144615;-59
2023/09/20 15:03:55;;;;;;;5.50;2.60;;;;;;;24.28;44.95;98832.85;232754;214;139639;-58
2023/09/20 15:09:02;;;;;;;2.50;1.40;;;;;;;24.22;45.57;98830.59;232684;214;136730;-56
2023/09/20 15:14:07;;;;;;;2.50;1.40;;;;;;;24.17;45.48;98827.66;232764;214;144334;-60
2023/09/20 15:19:11;;;;;;;3.60;1.50;;;;;;;24.14;45.60;98827.49;232617;214;139796;-58
2023/09/20 15:24:16;;;;;;;4.10;1.70;;;;;;;24.09;46.57;98823.58;232821;215;137778;-59
2023/09/20 15:29:21;;;;;;;2.50;1.30;;;;;;;23.97;47.32;98827.55;232805;215;145766;-60
2023/09/20 15:34:25;;;;;;;;;;;;;;;23.89;47.93;98825.29;232834;215;157596;-59
2023/09/20 15:39:35;;;;;;;2.30;1.60;;;;;;;23.80;48.48;98824.36;232803;215;131154;-61
2023/09/20 15:44:39;;;;;;;2.20;1.50;;;;;;;23.67;49.87;98822.83;232840;215;145608;-61
2023/09/20 15:49:46;;;;;;;2.00;1.60;;;;;;;23.57;49.91;98822.58;232836;215;140157;-62
2023/09/20 15:54:49;;;;;;;;;;;;;;;23.44;50.86;98822.35;232938;215;137952;-62
2023/09/20 15:59:54;;;;;;;3.80;1.50;;;;;;;23.28;51.83;98817.35;232982;215;146559;-62
2023/09/20 16:04:59;;;;;;;2.80;1.70;;;;;;;23.16;51.94;98817.31;232917;215;140974;-63
2023/09/20 16:10:12;;;;;;;2.40;1.70;;;;;;;23.10;51.82;98819.27;232753;215;136828;-58
2023/09/20 16:15:20;;;;;;;51.80;38.80;;;;;;;23.02;53.10;98823.48;232731;215;147221;-61
2023/09/20 16:20:26;;;;;;;5.40;2.70;;;;;;;22.91;53.79;98821.33;232976;215;139603;-62
2023/09/20 16:25:31;;;;;;;4.50;3.30;;;;;;;22.79;53.97;98817.13;232857;215;137559;-59
2023/09/20 16:30:37;;;;;;;5.30;2.40;;;;;;;22.66;54.25;98815.74;232864;215;146477;-61
2023/09/20 16:35:42;;;;;;;7.20;2.30;;;;;;;22.53;54.73;98812.82;232813;215;141352;-61
2023/09/20 16:40:47;;;;;;;7.90;3.70;;;;;;;22.41;55.48;98811.55;232874;215;137657;-63
2023/09/20 16:45:54;;;;;;;7.40;2.80;;;;;;;22.29;56.08;98819.48;232908;215;147715;-64
2023/09/20 16:50:59;;;;;;;5.90;3.50;;;;;;;22.17;57.02;98816.46;232792;215;140001;-64
2023/09/20 16:56:06;;;;;;;7.20;3.70;;;;;;;22.15;57.79;98823.95;234707;215;137423;-60
2023/09/20 17:01:13;;;;;;;7.20;3.30;;;;;;;22.11;58.61;98828.46;234586;215;146369;-65
2023/09/20 17:10:05;;;;;;;17.30;10.30;;;;;;;21.99;60.49;98828.58;231364;224;723134;-60
2023/09/20 17:15:09;;;;;;;17.60;9.90;;;;;;;21.82;60.50;98830.34;232214;220;137873;-58
2023/09/20 17:20:14;;;;;;;11.00;3.60;;;;;;;21.65;60.97;98835.14;232882;216;143897;-58
2023/09/20 17:25:19;;;;;;;;;;;;;;;21.56;61.82;98845.20;232864;216;138988;-60
2023/09/20 17:30:24;;;;;;;8.60;3.30;;;;;;;21.43;62.33;98847.30;233083;216;129188;-59
2023/09/20 17:35:29;;;;;;;8.30;3.00;;;;;;;21.29;62.88;98850.45;232721;213;143607;-59
2023/09/20 17:40:33;;;;;;;9.20;3.80;;;;;;;21.13;63.20;98853.09;232546;214;141440;-58
2023/09/20 17:45:39;;;;;;;14.20;3.90;;;;;;;21.03;63.94;98859.89;232658;213;137900;-60
2023/09/20 17:50:43;;;;;;;10.90;3.60;;;;;;;20.94;64.71;98860.92;232591;214;143862;-59
2023/09/20 17:55:51;;;;;;;6.20;3.60;;;;;;;20.87;65.10;98863.09;232660;212;138820;-59
2023/09/20 18:00:55;;;;;;;10.40;4.00;;;;;;;20.83;66.12;98863.95;232701;213;138467;-60
2023/09/20 18:06:01;;;;;;;8.50;3.60;;;;;;;20.95;66.29;98862.95;232601;213;145438;-61
2023/09/20 18:11:08;;;;;;;8.40;3.60;;;;;;;21.06;66.40;98862.20;232712;214;138915;-61
2023/09/20 18:16:12;;;;;;;7.40;3.30;;;;;;;21.11;66.15;98863.65;232573;214;137429;-57
2023/09/20 18:21:17;;;;;;;449.30;372.50;;;;;;;21.06;66.38;98873.13;232717;214;145462;-59
2023/09/20 18:26:21;;;;;;;18.50;12.80;;;;;;;20.98;65.71;98876.35;232653;214;138949;-60
2023/09/20 18:31:31;;;;;;;122.10;94.00;;;;;;;20.81;65.76;98869.73;232745;214;139369;-61
2023/09/20 18:36:35;;;;;;;15.20;7.10;;;;;;;20.64;66.40;98871.70;232817;214;145772;-61
2023/09/20 18:41:41;;;;;;;279.10;190.20;;;;;;;20.41;66.71;98880.45;232691;214;138973;-62
2023/09/20 18:46:46;;;;;;;13.70;8.50;;;;;;;20.23;67.11;98879.05;232780;214;138598;-63
2023/09/20 18:51:51;;;;;;;12.60;4.60;;;;;;;20.05;67.43;98880.77;232749;214;147660;-62
2023/09/20 18:56:55;;;;;;;9.70;4.70;;;;;;;19.86;67.77;98883.86;232731;214;140442;-61
2023/09/20 19:02:02;;;;;;;8.20;4.30;;;;;;;19.74;68.36;98884.77;232710;214;138649;-61
2023/09/20 19:07:11;;;;;;;9.50;4.90;;;;;;;19.67;68.71;98886.19;232964;214;146810;-61
2023/09/20 19:12:15;;;;;;;10.80;5.00;;;;;;;19.59;68.93;98883.27;232834;214;139184;-60
2023/09/20 19:17:32;;;;;;;15.10;5.40;;;;;;;19.50;69.35;98881.90;232757;214;136945;-61
2023/09/20 19:22:36;;;;;;;10.40;5.00;;;;;;;19.37;69.55;98880.30;232618;214;145765;-62
2023/09/20 19:27:45;;;;;;;12.10;4.80;;;;;;;19.25;70.06;98880.05;232747;214;139358;-61
2023/09/20 19:32:50;;;;;;;13.00;5.40;;;;;;;19.15;70.37;98877.50;232722;214;137429;-62
2023/09/20 19:37:56;;;;;;;11.30;5.80;;;;;;;19.10;70.77;98880.66;232677;214;145499;-61
2023/09/20 19:43:00;;;;;;;13.50;4.90;;;;;;;19.08;70.89;98879.42;232824;214;138205;-60
2023/09/20 19:48:06;;;;;;;11.90;5.30;;;;;;;19.05;71.01;98878.45;232625;214;137208;-59
2023/09/20 19:53:12;;;;;;;12.30;5.40;;;;;;;19.04;71.10;98885.80;232666;214;145847;-60
2023/09/20 19:58:16;;;;;;;13.20;5.20;;;;;;;18.96;71.28;98884.66;232605;214;138890;-61
2023/09/20 20:03:25;;;;;;;9.80;5.00;;;;;;;18.88;71.39;98881.23;232718;214;139620;-62
2023/09/20 20:08:31;;;;;;;12.70;5.50;;;;;;;18.81;71.86;98877.09;232801;214;146088;-61
2023/09/20 20:13:36;;;;;;;10.80;5.60;;;;;;;18.74;71.93;98875.27;232556;214;139518;-61
2023/09/20 20:18:45;;;;;;;8.90;5.20;;;;;;;18.69;72.02;98875.02;232813;214;138720;-59
2023/09/20 20:23:49;;;;;;;12.10;6.10;;;;;;;18.67;72.21;98877.02;232746;214;145469;-59
2023/09/20 20:28:54;;;;;;;10.10;5.70;;;;;;;18.65;72.22;98874.64;232737;215;138857;-59
2023/09/20 20:34:00;;;;;;;19.40;6.60;;;;;;;18.63;72.41;98873.09;232725;214;137582;-60
2023/09/20 20:39:11;;;;;;;17.80;6.10;;;;;;;18.59;72.47;98866.28;232633;214;145884;-59
2023/09/20 20:44:15;;;;;;;14.00;5.60;;;;;;;18.54;72.48;98864.46;232786;214;138719;-60
2023/09/20 20:49:22;;;;;;;12.50;5.30;;;;;;;18.43;72.71;98866.45;232985;214;139618;-61
2023/09/20 20:54:30;;;;;;;15.30;5.60;;;;;;;18.33;73.14;98858.30;232807;214;148384;-60
2023/09/20 20:59:37;;;;;;;9.30;4.70;;;;;;;18.28;72.99;98860.19;232628;214;138793;-59
2023/09/20 21:04:43;;;;;;;11.20;5.20;;;;;;;18.25;72.98;98859.76;232755;214;137048;-62
2023/09/20 21:09:47;;;;;;;14.70;5.30;;;;;;;18.23;72.94;98863.40;232843;214;146013;-61
2023/09/20 21:14:54;;;;;;;13.60;4.30;;;;;;;18.17;72.61;98861.41;232874;214;139368;-59
2023/09/20 21:20:13;;;;;;;12.80;5.20;;;;;;;18.10;72.62;98860.13;232732;214;137820;-60
2023/09/20 21:25:39;;;;;;;15.10;4.90;;;;;;;17.97;72.52;98857.63;232857;214;145745;-59
2023/09/20 21:30:46;;;;;;;;;;;;;;;17.88;72.85;98855.40;232933;215;140255;-60
2023/09/20 21:35:52;;;;;;;15.30;5.00;;;;;;;17.78;73.08;98854.75;232925;214;132580;-61
2023/09/20 21:40:59;;;;;;;11.90;4.30;;;;;;;17.69;73.21;98855.56;232824;214;145518;-61
2023/09/20 21:46:03;;;;;;;11.80;4.90;;;;;;;17.64;73.42;98846.67;232719;214;139486;-58
2023/09/20 21:51:07;;;;;;;16.20;5.20;;;;;;;17.63;73.58;98849.13;232725;214;154351;-58
2023/09/20 21:56:11;;;;;;;17.80;5.20;;;;;;;17.63;73.61;98845.91;232768;214;148742;-57
2023/09/20 22:01:15;;;;;;;9.70;5.10;;;;;;;17.63;73.67;98846.23;232960;215;139116;-59
2023/09/20 22:06:22;;;;;;;;;;;;;;;17.61;73.44;98842.72;232734;214;139907;-57
2023/09/20 22:11:27;;;;;;;13.50;5.80;;;;;;;17.61;73.57;98838.73;232918;214;147500;-55
2023/09/20 22:16:38;;;;;;;13.20;5.30;;;;;;;17.53;73.59;98839.84;232639;214;142363;-59
2023/09/20 22:21:45;;;;;;;8.20;5.40;;;;;;;17.43;73.57;98837.76;232852;214;137569;-59
2023/09/20 22:26:48;;;;;;;6.70;4.70;;;;;;;17.37;73.76;98837.38;232840;214;147591;-60
2023/09/20 22:31:54;;;;;;;11.80;5.10;;;;;;;17.35;73.81;98839.75;232738;214;142018;-60
2023/09/20 22:36:58;;;;;;;10.30;5.40;;;;;;;17.35;73.90;98834.17;232881;214;138732;-60
2023/09/20 22:42:04;;;;;;;6.70;4.40;;;;;;;17.32;73.88;98832.67;232849;215;145812;-55
2023/09/20 22:47:09;;;;;;;7.00;5.00;;;;;;;17.29;73.94;98834.23;232588;214;138773;-61
2023/09/20 22:52:14;;;;;;;10.60;5.30;;;;;;;17.23;74.13;98828.81;232812;214;137118;-59
2023/09/20 22:57:21;;;;;;;7.70;5.00;;;;;;;17.17;74.32;98822.69;232690;214;145755;-60
2023/09/20 23:02:25;;;;;;;8.10;4.50;;;;;;;17.15;74.44;98821.67;232719;214;139025;-58
2023/09/20 23:07:29;;;;;;;8.40;5.10;;;;;;;17.16;74.74;98823.26;232749;214;138408;-61
2023/09/20 23:12:34;;;;;;;8.80;5.20;;;;;;;17.19;74.63;98820.80;232614;214;146488;-60
2023/09/20 23:17:40;;;;;;;10.10;5.30;;;;;;;17.16;74.54;98828.75;232700;214;139085;-61
2023/09/20 23:22:49;;;;;;;7.70;5.30;;;;;;;17.13;74.75;98824.76;232649;215;137184;-60
2023/09/20 23:28:03;;;;;;;10.10;5.20;;;;;;;17.08;74.73;98824.61;232731;214;149196;-59
2023/09/20 23:33:21;;;;;;;10.00;4.60;;;;;;;17.01;74.82;98823.34;232703;214;140702;-59
2023/09/20 23:38:28;;;;;;;6.80;4.10;;;;;;;16.97;75.10;98823.31;232700;214;138559;-58
2023/09/20 23:43:33;;;;;;;7.70;4.60;;;;;;;17.01;75.04;98822.99;232734;213;147218;-60
2023/09/20 23:48:43;;;;;;;6.70;5.00;;;;;;;16.99;75.05;98822.04;232700;214;138937;-60
2023/09/20 23:53:49;;;;;;;9.80;5.10;;;;;;;16.96;75.15;98820.94;232734;214;137049;-59
2023/09/20 23:58:53;;;;;;;6.70;4.70;;;;;;;16.93;75.17;98818.02;232625;214;145732;-59
